createdAt,value
2023-05-06T00:02:00.151Z,13.18
2023-05-06T00:04:30.702Z,13.17
2023-05-06T00:07:00.576Z,13.14
2023-05-06T00:09:30.889Z,13.12
2023-05-06T00:12:01.222Z,13.11
2023-05-06T00:14:31.661Z,13.06
2023-05-06T00:17:01.998Z,13.06
2023-05-06T00:19:32.998Z,13.04
2023-05-06T00:22:03.175Z,13.03
2023-05-06T00:24:33.231Z,13.00
2023-05-06T00:27:03.374Z,13.00
2023-05-06T00:29:33.885Z,13.00
2023-05-06T00:32:04.467Z,12.98
2023-05-06T00:34:34.732Z,12.99
2023-05-06T00:37:04.661Z,12.99
2023-05-06T00:39:36.222Z,12.99
2023-05-06T00:42:07.136Z,12.97
2023-05-06T00:44:37.880Z,12.97
2023-05-06T00:47:08.785Z,12.99
2023-05-06T00:49:39.954Z,12.96
2023-05-06T00:52:10.476Z,12.96
2023-05-06T00:54:41.004Z,12.95
2023-05-06T00:57:12.327Z,12.94
2023-05-06T00:59:44.075Z,12.94
2023-05-06T01:02:13.596Z,12.95
2023-05-06T01:04:43.741Z,12.96
2023-05-06T01:07:24.710Z,12.97
2023-05-06T01:10:01.537Z,12.97
2023-05-06T01:12:38.180Z,12.97
2023-05-06T01:15:15.907Z,12.95
2023-05-06T01:17:49.453Z,12.94
2023-05-06T01:20:21.847Z,12.93
2023-05-06T01:22:52.664Z,12.90
2023-05-06T01:25:23.742Z,12.89
2023-05-06T01:27:53.913Z,12.87
2023-05-06T01:30:29.547Z,12.85
2023-05-06T01:33:05.417Z,12.84
2023-05-06T01:35:54.378Z,12.83
2023-05-06T01:38:34.939Z,12.83
2023-05-06T01:41:06.121Z,12.84
2023-05-06T01:43:41.734Z,12.84
2023-05-06T01:46:19.078Z,12.85
2023-05-06T01:48:53.593Z,12.86
2023-05-06T01:51:23.850Z,12.86
2023-05-06T01:53:54.904Z,12.87
2023-05-06T01:56:26.648Z,12.84
2023-05-06T01:58:59.299Z,12.82
2023-05-06T02:01:30.098Z,12.80
2023-05-06T02:04:01.023Z,12.78
2023-05-06T02:06:32.274Z,12.73
2023-05-06T02:09:02.764Z,12.67
2023-05-06T02:11:33.498Z,12.65
2023-05-06T02:14:07.114Z,12.63
2023-05-06T02:16:38.468Z,12.60
2023-05-06T02:19:08.880Z,12.60
2023-05-06T02:21:39.298Z,12.59
2023-05-06T02:24:10.046Z,12.58
2023-05-06T02:26:40.361Z,12.58
2023-05-06T02:29:10.676Z,12.56
2023-05-06T02:31:41.235Z,12.54
2023-05-06T02:34:11.329Z,12.52
2023-05-06T02:36:42.066Z,12.51
2023-05-06T02:39:12.518Z,12.49
2023-05-06T02:41:42.294Z,12.47
2023-05-06T02:44:13.221Z,12.45
2023-05-06T02:46:43.559Z,12.44
2023-05-06T02:49:14.492Z,12.41
2023-05-06T02:51:44.607Z,12.39
2023-05-06T02:54:15.339Z,12.36
2023-05-06T02:56:46.069Z,12.36
2023-05-06T02:59:16.537Z,12.36
2023-05-06T03:01:46.715Z,12.34
2023-05-06T03:04:16.714Z,12.37
2023-05-06T03:06:47.150Z,12.35
2023-05-06T03:09:18.708Z,12.34
2023-05-06T03:11:49.235Z,12.33
2023-05-06T03:14:20.158Z,12.32
2023-05-06T03:16:50.792Z,12.32
2023-05-06T03:19:22.054Z,12.32
2023-05-06T03:21:52.190Z,12.31
2023-05-06T03:24:23.544Z,12.31
2023-05-06T03:26:54.249Z,12.30
2023-05-06T03:29:24.979Z,12.28
2023-05-06T03:31:57.645Z,12.28
2023-05-06T03:34:28.914Z,12.26
2023-05-06T03:36:59.840Z,12.26
2023-05-06T03:39:30.982Z,12.25
2023-05-06T03:42:01.916Z,12.24
2023-05-06T03:44:32.442Z,12.23
2023-05-06T03:47:02.974Z,12.22
2023-05-06T03:49:33.913Z,12.20
2023-05-06T03:52:05.439Z,12.17
2023-05-06T03:54:36.150Z,12.17
2023-05-06T03:57:06.934Z,12.17
2023-05-06T03:59:37.861Z,12.17
2023-05-06T04:02:08.626Z,12.15
2023-05-06T04:04:39.956Z,12.15
2023-05-06T04:07:09.859Z,12.14
2023-05-06T04:09:39.793Z,12.16
2023-05-06T04:12:11.323Z,12.17
2023-05-06T04:14:42.052Z,12.20
2023-05-06T04:17:12.837Z,12.23
2023-05-06T04:19:43.730Z,12.27
2023-05-06T04:22:14.200Z,12.32
2023-05-06T04:24:45.804Z,12.39
2023-05-06T04:27:17.146Z,12.45
2023-05-06T04:29:48.085Z,12.53
2023-05-06T04:32:20.601Z,12.60
2023-05-06T04:34:51.186Z,12.70
2023-05-06T04:37:21.859Z,12.79
2023-05-06T04:39:57.567Z,12.88
2023-05-06T04:42:29.124Z,12.99
2023-05-06T04:45:11.643Z,13.11
2023-05-06T04:47:42.017Z,13.23
2023-05-06T04:50:15.034Z,13.34
2023-05-06T04:52:45.368Z,13.44
2023-05-06T04:55:16.920Z,13.54
2023-05-06T04:57:50.927Z,13.64
2023-05-06T05:00:25.901Z,13.75
2023-05-06T05:02:56.511Z,13.86
2023-05-06T05:05:27.998Z,13.97
2023-05-06T05:07:58.774Z,14.07
2023-05-06T05:10:29.045Z,14.18
2023-05-06T05:12:59.249Z,14.27
2023-05-06T05:15:30.161Z,14.36
2023-05-06T05:18:00.305Z,14.46
2023-05-06T05:20:30.592Z,14.57
2023-05-06T05:23:02.976Z,14.69
2023-05-06T05:25:34.514Z,14.76
2023-05-06T05:28:05.662Z,14.88
2023-05-06T05:30:37.015Z,15.00
2023-05-06T05:33:07.721Z,15.10
2023-05-06T05:35:38.258Z,15.22
2023-05-06T05:38:09.033Z,15.35
2023-05-06T05:40:40.549Z,15.49
2023-05-06T05:43:11.275Z,15.62
2023-05-06T05:45:42.540Z,15.75
2023-05-06T05:48:13.595Z,15.89
2023-05-06T05:50:44.087Z,16.03
2023-05-06T05:53:14.215Z,16.15
2023-05-06T05:55:45.139Z,16.27
2023-05-06T05:58:15.881Z,16.40
2023-05-06T06:00:46.407Z,16.53
2023-05-06T06:03:17.620Z,16.69
2023-05-06T06:05:48.896Z,16.80
2023-05-06T06:08:19.848Z,16.90
2023-05-06T06:10:50.910Z,17.02
2023-05-06T06:13:25.347Z,17.13
2023-05-06T06:15:58.423Z,17.25
2023-05-06T06:18:29.728Z,17.38
2023-05-06T06:21:00.455Z,17.50
2023-05-06T06:23:30.572Z,17.63
2023-05-06T06:26:02.126Z,17.72
2023-05-06T06:28:32.252Z,17.81
2023-05-06T06:31:02.357Z,17.91
2023-05-06T06:33:32.475Z,18.00
2023-05-06T06:36:02.354Z,18.09
2023-05-06T06:38:32.520Z,18.15
2023-05-06T06:41:02.463Z,18.22
2023-05-06T06:43:32.955Z,18.28
2023-05-06T06:46:04.976Z,18.37
2023-05-06T06:48:35.657Z,18.48
2023-05-06T06:51:06.974Z,18.55
2023-05-06T06:53:37.111Z,18.60
2023-05-06T06:56:11.828Z,18.68
2023-05-06T06:58:41.862Z,18.80
2023-05-06T07:01:13.041Z,18.90
2023-05-06T07:03:43.203Z,18.97
2023-05-06T07:06:14.060Z,19.10
2023-05-06T07:08:44.788Z,19.14
2023-05-06T07:11:15.506Z,19.22
2023-05-06T07:13:46.869Z,19.32
2023-05-06T07:16:17.051Z,19.40
2023-05-06T07:18:47.507Z,19.49
2023-05-06T07:21:17.429Z,19.55
2023-05-06T07:23:47.970Z,19.61
2023-05-06T07:26:18.479Z,19.70
2023-05-06T07:28:50.443Z,19.77
2023-05-06T07:31:20.832Z,19.85
2023-05-06T07:33:51.500Z,19.94
2023-05-06T07:36:23.261Z,20.03
2023-05-06T07:38:53.995Z,20.10
2023-05-06T07:41:24.520Z,20.17
2023-05-06T07:43:55.867Z,20.25
2023-05-06T07:46:25.046Z,20.35
2023-05-06T07:48:55.078Z,20.43
2023-05-06T07:51:26.627Z,20.50
2023-05-06T07:53:57.367Z,20.54
2023-05-06T07:56:29.330Z,20.56
2023-05-06T07:58:59.650Z,20.58
2023-05-06T08:01:30.789Z,20.59
2023-05-06T08:04:01.197Z,20.62
2023-05-06T08:06:32.661Z,20.70
2023-05-06T08:09:02.579Z,20.77
2023-05-06T08:11:34.136Z,20.89
2023-05-06T08:14:05.477Z,20.99
2023-05-06T08:16:35.159Z,21.06
2023-05-06T08:19:05.508Z,21.14
2023-05-06T08:21:37.477Z,21.23
2023-05-06T08:24:10.031Z,21.31
2023-05-06T08:26:40.174Z,21.38
2023-05-06T08:29:10.905Z,21.46
2023-05-06T08:31:41.473Z,21.53
2023-05-06T08:34:11.562Z,21.62
2023-05-06T08:36:43.387Z,21.74
2023-05-06T08:39:14.858Z,21.83
2023-05-06T08:41:47.439Z,21.93
2023-05-06T08:44:23.120Z,21.99
2023-05-06T08:46:53.819Z,21.98
2023-05-06T08:49:25.570Z,22.00
2023-05-06T08:51:56.749Z,22.08
2023-05-06T08:54:29.105Z,22.16
2023-05-06T08:57:00.433Z,22.20
2023-05-06T08:59:32.297Z,22.28
2023-05-06T09:02:03.582Z,22.31
2023-05-06T09:04:33.857Z,22.34
2023-05-06T09:07:04.389Z,22.37
2023-05-06T09:09:35.946Z,22.47
2023-05-06T09:12:13.089Z,22.54
2023-05-06T09:14:43.754Z,22.61
2023-05-06T09:17:23.269Z,22.69
2023-05-06T09:19:56.417Z,22.77
2023-05-06T09:22:28.179Z,22.89
2023-05-06T09:24:59.380Z,22.95
2023-05-06T09:27:32.776Z,23.02
2023-05-06T09:30:04.947Z,23.12
2023-05-06T09:32:39.068Z,23.19
2023-05-06T09:35:11.807Z,23.28
2023-05-06T09:37:42.876Z,23.39
2023-05-06T09:40:15.360Z,23.43
2023-05-06T09:42:47.356Z,23.49
2023-05-06T09:45:18.968Z,23.51
2023-05-06T09:47:49.019Z,23.57
2023-05-06T09:50:21.683Z,23.61
2023-05-06T09:52:52.540Z,23.72
2023-05-06T09:55:26.089Z,23.80
2023-05-06T09:57:58.165Z,23.91
2023-05-06T10:00:31.932Z,23.97
2023-05-06T10:03:03.289Z,24.06
2023-05-06T10:05:35.849Z,24.16
2023-05-06T10:08:09.467Z,24.24
2023-05-06T10:10:43.123Z,24.29
2023-05-06T10:13:13.431Z,24.35
2023-05-06T10:15:45.643Z,24.40
2023-05-06T10:18:17.680Z,24.42
2023-05-06T10:20:49.502Z,24.50
2023-05-06T10:23:26.274Z,24.58
2023-05-06T10:26:05.941Z,24.64
2023-05-06T10:28:40.109Z,24.65
2023-05-06T10:31:13.588Z,24.66
2023-05-06T10:33:47.740Z,24.68
2023-05-06T10:36:22.047Z,24.73
2023-05-06T10:38:55.906Z,24.72
2023-05-06T10:41:27.712Z,24.73
2023-05-06T10:43:59.482Z,24.72
2023-05-06T10:46:32.462Z,24.75
2023-05-06T10:49:19.498Z,24.74
2023-05-06T10:52:12.250Z,24.80
2023-05-06T10:54:52.787Z,24.85
2023-05-06T10:57:26.333Z,24.97
2023-05-06T10:59:56.299Z,25.08
2023-05-06T11:02:31.700Z,25.16
2023-05-06T11:05:03.094Z,25.22
2023-05-06T11:07:32.388Z,25.19
2023-05-06T11:10:04.777Z,25.13
2023-05-06T11:12:48.933Z,25.17
2023-05-06T11:15:26.289Z,25.27
2023-05-06T11:17:56.688Z,25.29
2023-05-06T11:20:28.328Z,25.35
2023-05-06T11:22:58.141Z,25.38
2023-05-06T11:25:42.392Z,25.32
2023-05-06T11:28:14.094Z,25.33
2023-05-06T11:30:53.593Z,25.37
2023-05-06T11:33:27.532Z,25.40
2023-05-06T11:35:57.354Z,25.46
2023-05-06T11:38:39.343Z,25.43
2023-05-06T11:41:09.672Z,25.41
2023-05-06T11:43:40.171Z,25.43
2023-05-06T11:46:09.701Z,25.45
2023-05-06T11:48:39.361Z,25.47
2023-05-06T11:51:09.968Z,25.50
2023-05-06T11:53:41.088Z,25.51
2023-05-06T11:56:12.224Z,25.52
2023-05-06T11:58:42.958Z,25.51
2023-05-06T12:01:13.896Z,25.50
2023-05-06T12:03:44.821Z,25.52
2023-05-06T12:06:15.154Z,25.55
2023-05-06T12:08:45.479Z,25.56
2023-05-06T12:11:16.212Z,25.61
2023-05-06T12:13:46.947Z,25.59
2023-05-06T12:16:17.691Z,25.55
2023-05-06T12:18:48.016Z,25.53
2023-05-06T12:21:23.823Z,25.57
2023-05-06T12:23:56.433Z,25.58
2023-05-06T12:26:27.780Z,25.61
2023-05-06T12:29:07.940Z,25.59
2023-05-06T12:31:38.273Z,25.57
2023-05-06T12:34:08.987Z,25.57
2023-05-06T12:36:44.701Z,25.57
2023-05-06T12:39:17.014Z,25.59
2023-05-06T12:41:48.358Z,25.57
2023-05-06T12:44:36.715Z,25.57
2023-05-06T12:47:08.250Z,25.57
2023-05-06T12:49:47.790Z,25.59
2023-05-06T12:52:20.036Z,25.59
2023-05-06T12:54:51.518Z,25.60
2023-05-06T12:57:23.274Z,25.62
2023-05-06T12:59:55.849Z,25.65
2023-05-06T13:02:26.282Z,25.63
2023-05-06T13:04:56.927Z,25.59
2023-05-06T13:07:28.652Z,25.53
2023-05-06T13:09:59.186Z,25.51
2023-05-06T13:12:29.533Z,25.56
2023-05-06T13:14:59.832Z,25.58
2023-05-06T13:17:30.580Z,25.58
2023-05-06T13:20:05.242Z,25.62
2023-05-06T13:22:47.253Z,25.59
2023-05-06T13:25:24.274Z,25.58
2023-05-06T13:27:55.199Z,25.58
2023-05-06T13:30:25.481Z,25.58
2023-05-06T13:32:55.219Z,25.58
2023-05-06T13:35:25.763Z,25.54
2023-05-06T13:37:56.292Z,25.51
2023-05-06T13:40:26.764Z,25.50
2023-05-06T13:42:56.734Z,25.48
2023-05-06T13:45:28.291Z,25.47
2023-05-06T13:47:58.424Z,25.46
2023-05-06T13:50:28.695Z,25.41
2023-05-06T13:52:59.051Z,25.42
2023-05-06T13:55:29.787Z,25.39
2023-05-06T13:58:00.309Z,25.42
2023-05-06T14:00:32.418Z,25.43
2023-05-06T14:03:02.295Z,25.31
2023-05-06T14:05:33.540Z,25.22
2023-05-06T14:08:04.082Z,25.15
2023-05-06T14:10:35.005Z,24.98
2023-05-06T14:13:07.137Z,24.90
2023-05-06T14:15:37.692Z,24.87
2023-05-06T14:18:08.261Z,24.84
2023-05-06T14:20:38.756Z,24.80
2023-05-06T14:23:09.273Z,24.78
2023-05-06T14:25:40.434Z,24.75
2023-05-06T14:28:12.379Z,24.71
2023-05-06T14:30:42.668Z,24.63
2023-05-06T14:33:12.274Z,24.61
2023-05-06T14:35:43.144Z,24.65
2023-05-06T14:38:13.671Z,24.60
2023-05-06T14:40:43.597Z,24.57
2023-05-06T14:43:14.318Z,24.49
2023-05-06T14:45:44.869Z,24.48
2023-05-06T14:48:14.670Z,24.45
2023-05-06T14:50:44.894Z,24.42
2023-05-06T14:53:14.815Z,24.40
2023-05-06T14:55:45.317Z,24.36
2023-05-06T14:58:15.196Z,24.33
2023-05-06T15:00:46.588Z,24.27
2023-05-06T15:03:16.713Z,24.22
2023-05-06T15:05:47.055Z,24.22
2023-05-06T15:08:17.593Z,24.22
2023-05-06T15:10:49.476Z,24.20
2023-05-06T15:13:19.833Z,24.12
2023-05-06T15:15:50.795Z,24.08
2023-05-06T15:18:20.250Z,24.06
2023-05-06T15:20:52.044Z,24.01
2023-05-06T15:23:22.981Z,24.01
2023-05-06T15:25:53.714Z,23.98
2023-05-06T15:28:24.783Z,23.94
2023-05-06T15:30:54.988Z,23.88
2023-05-06T15:33:24.896Z,23.82
2023-05-06T15:35:55.630Z,23.74
2023-05-06T15:38:25.473Z,23.68
2023-05-06T15:40:55.861Z,23.60
2023-05-06T15:43:26.468Z,23.50
2023-05-06T15:46:06.545Z,23.41
2023-05-06T15:48:36.767Z,23.34
2023-05-06T15:51:07.384Z,23.27
2023-05-06T15:53:39.927Z,23.23
2023-05-06T15:56:18.065Z,23.17
2023-05-06T15:58:49.820Z,23.09
2023-05-06T16:01:23.869Z,23.00
2023-05-06T16:04:06.009Z,22.90
2023-05-06T16:06:36.571Z,22.85
2023-05-06T16:09:08.525Z,22.75
2023-05-06T16:11:38.575Z,22.67
2023-05-06T16:14:08.566Z,22.62
2023-05-06T16:16:38.488Z,22.56
2023-05-06T16:19:09.418Z,22.53
2023-05-06T16:21:39.899Z,22.44
2023-05-06T16:24:10.461Z,22.34
2023-05-06T16:26:40.999Z,22.28
2023-05-06T16:29:11.314Z,22.24
2023-05-06T16:31:42.203Z,22.17
2023-05-06T16:34:12.790Z,22.08
2023-05-06T16:36:43.318Z,21.98
2023-05-06T16:39:13.635Z,21.90
2023-05-06T16:41:44.374Z,21.82
2023-05-06T16:44:14.914Z,21.75
2023-05-06T16:46:45.619Z,21.67
2023-05-06T16:49:16.362Z,21.62
2023-05-06T16:51:46.659Z,21.55
2023-05-06T16:54:17.009Z,21.50
2023-05-06T16:56:52.080Z,21.43
2023-05-06T16:59:23.387Z,21.37
2023-05-06T17:01:53.231Z,21.32
2023-05-06T17:04:25.056Z,21.25
2023-05-06T17:06:55.592Z,21.19
2023-05-06T17:09:25.709Z,21.12
2023-05-06T17:11:56.181Z,21.03
2023-05-06T17:14:26.117Z,20.97
2023-05-06T17:16:56.131Z,20.88
2023-05-06T17:19:26.791Z,20.83
2023-05-06T17:21:57.170Z,20.74
2023-05-06T17:26:56.535Z,20.55
2023-05-06T17:29:27.281Z,20.48
2023-05-06T17:31:57.994Z,20.42
2023-05-06T17:34:27.917Z,20.34
2023-05-06T17:36:57.786Z,20.27
2023-05-06T17:39:28.763Z,20.20
2023-05-06T17:41:59.088Z,20.13
2023-05-06T17:44:29.620Z,20.06
2023-05-06T17:47:00.381Z,19.99
2023-05-06T17:49:30.664Z,19.93
2023-05-06T17:52:01.575Z,19.86
2023-05-06T17:54:34.387Z,19.79
2023-05-06T17:57:04.707Z,19.72
2023-05-06T17:59:36.377Z,19.63
2023-05-06T18:02:09.715Z,19.59
2023-05-06T18:04:39.981Z,19.52
2023-05-06T18:07:10.307Z,19.46
2023-05-06T18:09:40.422Z,19.39
2023-05-06T18:12:10.540Z,19.34
2023-05-06T18:14:41.270Z,19.28
2023-05-06T18:17:12.004Z,19.23
2023-05-06T18:19:42.737Z,19.17
2023-05-06T18:22:12.868Z,19.11
2023-05-06T18:24:43.179Z,19.04
2023-05-06T18:27:13.307Z,18.99
2023-05-06T18:29:44.040Z,18.91
2023-05-06T18:32:14.394Z,18.86
2023-05-06T18:34:44.895Z,18.79
2023-05-06T18:37:15.412Z,18.71
2023-05-06T18:39:45.631Z,18.65
2023-05-06T18:42:16.056Z,18.57
2023-05-06T18:44:49.698Z,18.51
2023-05-06T18:47:20.804Z,18.44
2023-05-06T18:49:50.716Z,18.36
2023-05-06T18:52:22.066Z,18.28
2023-05-06T18:54:52.392Z,18.20
2023-05-06T18:57:23.132Z,18.13
2023-05-06T18:59:53.848Z,18.05
2023-05-06T19:02:24.805Z,17.97
2023-05-06T19:04:55.545Z,17.88
2023-05-06T19:07:26.249Z,17.82
2023-05-06T19:09:57.201Z,17.75
2023-05-06T19:12:27.726Z,17.67
2023-05-06T19:14:58.453Z,17.60
2023-05-06T19:17:29.210Z,17.54
2023-05-06T19:19:59.925Z,17.49
2023-05-06T19:22:31.063Z,17.42
2023-05-06T19:25:01.997Z,17.37
2023-05-06T19:27:32.124Z,17.33
2023-05-06T19:30:02.592Z,17.28
2023-05-06T19:32:33.529Z,17.22
2023-05-06T19:35:07.433Z,17.18
2023-05-06T19:37:38.327Z,17.14
2023-05-06T19:40:12.061Z,17.11
2023-05-06T19:42:42.455Z,17.07
2023-05-06T19:45:18.142Z,17.03
2023-05-06T19:47:50.278Z,16.98
2023-05-06T19:50:21.002Z,16.95
2023-05-06T19:52:51.532Z,16.90
2023-05-06T19:55:23.241Z,16.84
2023-05-06T19:57:56.700Z,16.79
2023-05-06T20:00:27.755Z,16.72
2023-05-06T20:02:59.992Z,16.67
2023-05-06T20:05:31.143Z,16.61
2023-05-06T20:08:01.682Z,16.56
2023-05-06T20:10:32.399Z,16.50
2023-05-06T20:13:02.521Z,16.42
2023-05-06T20:15:33.249Z,16.36
2023-05-06T20:18:03.416Z,16.29
2023-05-06T20:20:34.214Z,16.21
2023-05-06T20:23:04.622Z,16.15
2023-05-06T20:25:36.786Z,16.08
2023-05-06T20:28:07.527Z,16.03
2023-05-06T20:30:37.873Z,15.97
2023-05-06T20:33:08.265Z,15.92
2023-05-06T20:35:40.138Z,15.87
2023-05-06T20:38:11.274Z,15.83
2023-05-06T20:40:41.395Z,15.79
2023-05-06T20:43:11.920Z,15.75
2023-05-06T20:45:41.665Z,15.72
2023-05-06T20:48:12.931Z,15.68
2023-05-06T20:50:45.347Z,15.65
2023-05-06T20:53:15.865Z,15.63
2023-05-06T20:55:46.397Z,15.62
2023-05-06T20:58:16.514Z,15.60
2023-05-06T21:00:46.829Z,15.58
2023-05-06T21:03:17.000Z,15.57
2023-05-06T21:05:47.286Z,15.55
2023-05-06T21:08:18.419Z,15.52
2023-05-06T21:10:48.335Z,15.51
2023-05-06T21:13:18.268Z,15.50
2023-05-06T21:15:48.379Z,15.48
2023-05-06T21:18:19.182Z,15.48
2023-05-06T21:20:49.826Z,15.47
2023-05-06T21:23:20.358Z,15.46
2023-05-06T21:25:50.278Z,15.44
2023-05-06T21:28:19.987Z,15.43
2023-05-06T21:30:50.114Z,15.43
2023-05-06T21:33:20.834Z,15.39
2023-05-06T21:35:50.944Z,15.37
2023-05-06T21:38:21.477Z,15.38
2023-05-06T21:40:51.592Z,15.36
2023-05-06T21:43:22.529Z,15.33
2023-05-06T21:45:52.884Z,15.30
2023-05-06T21:48:22.974Z,15.28
2023-05-06T21:50:57.596Z,15.26
2023-05-06T21:53:28.336Z,15.24
2023-05-06T21:55:58.239Z,15.22
2023-05-06T21:58:27.954Z,15.18
2023-05-06T22:00:57.867Z,15.18
2023-05-06T22:03:28.903Z,15.15
2023-05-06T22:05:59.474Z,15.12
2023-05-06T22:08:29.869Z,15.09
2023-05-06T22:10:59.980Z,15.07
2023-05-06T22:13:30.502Z,15.03
2023-05-06T22:16:01.106Z,15.05
2023-05-06T22:18:31.559Z,15.00
2023-05-06T22:21:02.720Z,15.00
2023-05-06T22:23:33.246Z,14.98
2023-05-06T22:26:03.977Z,14.95
2023-05-06T22:28:34.890Z,14.93
2023-05-06T22:31:05.893Z,14.93
2023-05-06T22:33:36.168Z,14.90
2023-05-06T22:36:08.489Z,14.87
2023-05-06T22:38:38.236Z,14.84
2023-05-06T22:41:08.368Z,14.80
2023-05-06T22:43:38.272Z,14.76
2023-05-06T22:46:08.256Z,14.74
2023-05-06T22:48:38.879Z,14.70
2023-05-06T22:51:08.888Z,14.67
2023-05-06T22:53:39.769Z,14.63
2023-05-06T22:56:10.909Z,14.59
2023-05-06T22:58:41.027Z,14.53
2023-05-06T23:01:11.578Z,14.50
2023-05-06T23:03:41.706Z,14.44
2023-05-06T23:06:11.796Z,14.39
2023-05-06T23:08:42.525Z,14.31
2023-05-06T23:11:13.256Z,14.28
2023-05-06T23:13:43.792Z,14.23
2023-05-06T23:16:14.309Z,14.17
2023-05-06T23:18:44.889Z,14.11
2023-05-06T23:21:14.681Z,14.04
2023-05-06T23:23:44.873Z,13.98
2023-05-06T23:26:15.607Z,13.92
2023-05-06T23:28:45.719Z,13.86
2023-05-06T23:31:16.915Z,13.79
2023-05-06T23:33:46.742Z,13.72
2023-05-06T23:36:17.513Z,13.64
2023-05-06T23:38:47.839Z,13.59
2023-05-06T23:41:18.769Z,13.51
2023-05-06T23:43:49.299Z,13.45
2023-05-06T23:46:20.874Z,13.38
2023-05-06T23:48:50.647Z,13.29
2023-05-06T23:51:20.684Z,13.21
2023-05-06T23:53:50.800Z,13.13
2023-05-06T23:56:21.320Z,13.08
2023-05-06T23:58:52.064Z,13.00
